Quick Links (Output Below):   Max & Min Temps   /   Climate Reports   /   Zone Forecasts
River Forecasts   /   Forestry Forecasts   /   Aviation Forecasts   /   Radars   /   Features

Terminal Aerodrome Forecast (Arkadelphia)

Pick a Site:
Arkadelphia | El Dorado | Fayetteville | Fort Smith | Harrison | Highfill | Hot Springs | Jonesboro
Little Rock | Monticello | Mountain Home | Pine Bluff | Texarkana
 Forecast 

KADF 242056Z 2421/2518 15012G23KT P6SM VCSH SCT025 OVC040
      TEMPO 2421/2422 VRB10G20KT 4SM -TSRA BR OVC025CB
     FM242200 16008G18KT P6SM VCTS SCT020 OVC040CB
      TEMPO 2422/2502 4SM -RA BR BKN025 OVC040
     FM250300 18008KT 5SM -RA BR BKN025 OVC040
     FM251000 20004KT 3SM -RA BR OVC015
     FM251500 20007KT P6SM VCSH OVC025=


 Latest METARs (Observations) 
How to Decode METARs
21Z KADF 242056Z AUTO 17009KT 10SM FEW002 23/23 A2990 RMK AO2 56018
         60009 T02330227 LTG DSNT NE TSE47RAE48 P0007 SLP139 $
         
20Z KADF 241956Z AUTO 17012KT 1 1/2SM TSRA BR FEW002 SCT038 BKN047
         24/23 A2994 RMK AO2 T02440233 BKN V SCT LTG DSNT ALQDS
         TSB28RAB45 P0002 PRESRR SLP149 $
         
19Z KADF 241856Z AUTO 15011KT 10SM FEW037 SCT046 28/23 A2992 RMK AO2
         T02830227 LTG DSNT SW SLP145 $
         
18Z KADF 241756Z AUTO 16011KT 10SM BKN030 BKN038 BKN047 28/23 A2995
         RMK AO2 56010 T02770227 10277 20227 SLP156 $
         
17Z KADF 241656Z AUTO 14006KT 10SM FEW025 BKN035 BKN043 27/23 A2997
         RMK AO2 T02720233 BKN V SCT SLP161 $
         
16Z KADF 241556Z AUTO 15010KT 8SM SCT023 BKN028 27/23 A2997 RMK AO2
         T02720227 BKN V SCT SLP162 $
         
15Z KADF 241456Z AUTO 15011KT 9SM FEW017 SCT022 BKN029 27/23 A2999 RMK
         AO2 58010 T02660233 SLP167 $
         
14Z KADF 241356Z AUTO 13005KT 8SM BKN013 BKN017 24/23 A3000 RMK AO2
         T02440233 SLP171 $
         
13Z KADF 241256Z AUTO VRB05KT 7SM SCT011 BKN019 BKN033 23/23 A3001 RMK
         AO2 T02330233 BKN V SCT SLP176 $
         
12Z KADF 241156Z AUTO 16005KT 9SM BKN012 BKN022 23/22 A3002 RMK AO2
         55000 60000 T02270222 10233 20222 BKN V SCT RAB09E34 P0000
         SLP178 $
         
***** Today's Observations (Above) *****


Back to Main Page
http://www.srh.noaa.gov/lzk/qfcst.php

USA.gov is the U.S. government's official web portal to all federal, state and local government web resources and services.